Terminal Aerodrome Forecast
Issued by NWS Tampa Bay Area, FL

Home | Current Version | Previous Version | Text Only | Print | Product List | Glossary On
Versions: 1 2 3 4 5 6 7 8 9 10 11 12
000
FTUS42 KTBW 201700
TAFFMY
TAF
KFMY 201726Z 2018/2118 13006KT P6SM FEW040 FEW250
     FM202100 23006KT P6SM SCT045
     FM210100 VRB03KT P6SM BKN060
     FM211400 VRB04KT P6SM VCSH BKN040 BKN150=

USA.gov is the U.S. government's official web portal to all federal, state and local government web resources and services.